createdAt,value
2017-10-22T00:01:56.070Z,57.90
2017-10-22T00:04:24.514Z,57.50
2017-10-22T00:06:50.846Z,57.30
2017-10-22T00:09:17.185Z,57.60
2017-10-22T00:11:43.557Z,57.30
2017-10-22T00:14:10.583Z,57.50
2017-10-22T00:16:36.852Z,57.50
2017-10-22T00:19:03.215Z,57.00
2017-10-22T00:21:30.485Z,56.90
2017-10-22T00:23:57.416Z,57.30
2017-10-22T00:26:23.682Z,57.20
2017-10-22T00:28:50.691Z,57.20
2017-10-22T00:31:16.974Z,57.10
2017-10-22T00:33:43.265Z,56.20
2017-10-22T00:36:10.583Z,57.00
2017-10-22T00:38:36.883Z,57.00
2017-10-22T00:41:03.166Z,57.20
2017-10-22T00:43:29.463Z,56.60
2017-10-22T00:45:55.789Z,56.40
2017-10-22T00:48:22.131Z,55.70
2017-10-22T00:50:48.483Z,56.50
2017-10-22T00:53:17.968Z,55.80
2017-10-22T00:55:45.450Z,55.80
2017-10-22T00:58:11.884Z,55.80
2017-10-22T01:00:39.805Z,55.60
2017-10-22T01:03:12.011Z,55.70
2017-10-22T01:05:39.288Z,55.80
2017-10-22T01:08:07.357Z,55.70
2017-10-22T01:10:34.247Z,55.70
2017-10-22T01:13:01.204Z,55.60
2017-10-22T01:15:30.247Z,55.60
2017-10-22T01:17:57.054Z,55.60
2017-10-22T01:20:23.218Z,55.50
2017-10-22T01:22:49.421Z,55.90
2017-10-22T01:25:16.132Z,56.60
2017-10-22T01:27:44.087Z,56.30
2017-10-22T01:30:11.180Z,56.30
2017-10-22T01:32:38.682Z,55.60
2017-10-22T01:35:04.835Z,55.80
2017-10-22T01:37:30.960Z,55.60
2017-10-22T01:39:57.101Z,55.40
2017-10-22T01:42:23.287Z,55.50
2017-10-22T01:44:51.568Z,56.30
2017-10-22T01:47:17.687Z,55.90
2017-10-22T01:49:43.919Z,56.00
2017-10-22T01:52:10.099Z,56.30
2017-10-22T01:54:37.111Z,56.00
2017-10-22T01:57:03.284Z,56.10
2017-10-22T01:59:30.569Z,55.80
2017-10-22T02:01:56.977Z,55.70
2017-10-22T02:04:23.964Z,56.00
2017-10-22T02:06:50.183Z,56.00
2017-10-22T02:09:16.300Z,55.10
2017-10-22T02:11:42.491Z,55.50
2017-10-22T02:14:12.764Z,55.70
2017-10-22T02:16:39.116Z,55.90
2017-10-22T02:19:05.272Z,55.30
2017-10-22T02:21:31.468Z,55.50
2017-10-22T02:23:58.305Z,55.10
2017-10-22T02:26:25.150Z,55.00
2017-10-22T02:28:52.064Z,54.60
2017-10-22T02:31:18.200Z,54.60
2017-10-22T02:33:44.303Z,54.30
2017-10-22T02:36:10.420Z,54.50
2017-10-22T02:38:36.853Z,54.00
2017-10-22T02:41:02.978Z,54.60
2017-10-22T02:43:30.166Z,54.70
2017-10-22T02:45:56.267Z,53.70
2017-10-22T02:48:22.334Z,53.40
2017-10-22T02:50:48.483Z,53.40
2017-10-22T02:53:14.562Z,53.80
2017-10-22T02:55:41.370Z,52.80
2017-10-22T02:58:11.721Z,52.80
2017-10-22T03:00:37.834Z,52.80
2017-10-22T03:03:03.967Z,53.10
2017-10-22T03:05:30.807Z,52.40
2017-10-22T03:07:57.642Z,53.10
2017-10-22T03:10:23.827Z,53.10
2017-10-22T03:12:49.936Z,51.60
2017-10-22T03:15:15.998Z,51.80
2017-10-22T03:17:42.130Z,51.70
2017-10-22T03:20:08.245Z,52.00
2017-10-22T03:22:34.354Z,51.50
2017-10-22T03:25:00.479Z,51.70
2017-10-22T03:27:26.607Z,52.00
2017-10-22T03:29:52.704Z,51.90
2017-10-22T03:32:18.758Z,51.60
2017-10-22T03:34:45.031Z,51.50
2017-10-22T03:37:12.063Z,51.60
2017-10-22T03:39:38.122Z,51.50
2017-10-22T03:42:04.188Z,51.80
2017-10-22T03:44:30.473Z,50.70
2017-10-22T03:46:56.746Z,50.80
2017-10-22T03:49:23.030Z,50.70
2017-10-22T03:51:56.651Z,51.10
2017-10-22T03:54:22.721Z,50.50
2017-10-22T03:56:49.535Z,50.60
2017-10-22T03:59:15.652Z,50.50
2017-10-22T04:01:41.814Z,50.60
2017-10-22T04:04:08.628Z,50.00
2017-10-22T04:06:34.778Z,49.90
2017-10-22T04:09:01.586Z,51.00
2017-10-22T04:11:27.677Z,51.00
2017-10-22T04:13:53.779Z,50.70
2017-10-22T04:16:20.642Z,53.20
2017-10-22T04:18:46.711Z,53.20
2017-10-22T04:21:12.815Z,53.80
2017-10-22T04:23:38.906Z,54.70
2017-10-22T04:26:04.956Z,55.60
2017-10-22T04:28:31.010Z,56.00
2017-10-22T04:30:57.268Z,56.30
2017-10-22T04:33:24.304Z,57.80
2017-10-22T04:35:51.327Z,58.60
2017-10-22T04:38:17.603Z,58.40
2017-10-22T04:40:43.878Z,59.20
2017-10-22T04:43:10.146Z,60.40
2017-10-22T04:45:37.158Z,62.60
2017-10-22T04:48:03.441Z,62.50
2017-10-22T04:50:29.707Z,63.20
2017-10-22T04:52:55.980Z,64.10
2017-10-22T04:55:22.286Z,65.40
2017-10-22T04:57:48.750Z,65.00
2017-10-22T05:00:15.077Z,66.90
2017-10-22T05:02:41.354Z,67.70
2017-10-22T05:05:07.632Z,68.60
2017-10-22T05:07:34.654Z,69.60
2017-10-22T05:10:00.908Z,69.60
2017-10-22T05:12:27.175Z,69.60
2017-10-22T05:14:53.450Z,70.80
2017-10-22T05:17:19.718Z,71.20
2017-10-22T05:19:46.033Z,70.40
2017-10-22T05:22:12.340Z,72.00
2017-10-22T05:24:38.629Z,71.80
2017-10-22T05:27:04.892Z,73.10
2017-10-22T05:29:31.167Z,73.10
2017-10-22T05:31:57.471Z,73.40
2017-10-22T05:34:23.779Z,73.50
2017-10-22T05:36:50.805Z,74.80
2017-10-22T05:39:17.823Z,74.70
2017-10-22T05:41:44.137Z,74.70
2017-10-22T05:44:10.472Z,75.50
2017-10-22T05:46:36.739Z,74.70
2017-10-22T05:49:02.990Z,75.10
2017-10-22T05:51:29.234Z,76.00
2017-10-22T05:53:55.529Z,76.60
2017-10-22T05:56:21.846Z,75.40
2017-10-22T05:58:48.905Z,77.10
2017-10-22T06:01:15.944Z,76.20
2017-10-22T06:03:42.253Z,76.20
2017-10-22T06:06:08.577Z,77.00
2017-10-22T06:08:34.838Z,77.20
2017-10-22T06:11:01.169Z,77.00
2017-10-22T06:13:28.192Z,77.60
2017-10-22T06:15:55.454Z,76.90
2017-10-22T06:18:21.784Z,76.20
2017-10-22T06:20:48.821Z,77.20
2017-10-22T06:23:15.121Z,77.20
2017-10-22T06:25:41.402Z,78.00
2017-10-22T06:28:07.683Z,78.00
2017-10-22T06:30:33.966Z,78.30
2017-10-22T06:33:00.379Z,78.80
2017-10-22T06:35:26.695Z,76.90
2017-10-22T06:37:52.982Z,78.30
2017-10-22T06:40:19.300Z,77.50
2017-10-22T06:42:45.792Z,77.90
2017-10-22T06:45:12.852Z,77.70
2017-10-22T06:47:39.166Z,77.70
2017-10-22T06:50:05.443Z,77.00
2017-10-22T06:52:31.747Z,77.10
2017-10-22T06:54:58.100Z,77.70
2017-10-22T06:57:24.402Z,77.10
2017-10-22T06:59:50.826Z,77.10
2017-10-22T07:02:17.123Z,77.90
2017-10-22T07:04:44.199Z,76.70
2017-10-22T07:07:10.522Z,76.60
2017-10-22T07:09:37.637Z,76.70
2017-10-22T07:12:05.017Z,76.60
2017-10-22T07:14:32.086Z,76.10
2017-10-22T07:16:58.552Z,76.10
2017-10-22T07:19:24.900Z,75.30
2017-10-22T07:21:51.317Z,75.90
2017-10-22T07:24:17.619Z,76.40
2017-10-22T07:26:43.926Z,76.00
2017-10-22T07:29:16.079Z,76.30
2017-10-22T07:31:42.918Z,76.20
2017-10-22T07:34:09.109Z,76.00
2017-10-22T07:36:35.215Z,75.80
2017-10-22T07:39:01.302Z,75.60
2017-10-22T07:41:28.133Z,75.50
2017-10-22T07:43:57.008Z,74.60
2017-10-22T07:46:23.938Z,75.80
2017-10-22T07:48:50.021Z,75.80
2017-10-22T07:51:16.106Z,75.20
2017-10-22T07:53:42.184Z,74.50
2017-10-22T07:56:08.243Z,74.30
2017-10-22T07:58:34.302Z,73.20
2017-10-22T08:01:00.464Z,74.70
2017-10-22T08:03:26.748Z,73.10
2017-10-22T08:05:54.833Z,72.90
2017-10-22T08:08:21.105Z,72.90
2017-10-22T08:10:47.410Z,72.60
2017-10-22T08:13:13.674Z,73.20
2017-10-22T08:15:39.932Z,72.50
2017-10-22T08:18:06.212Z,72.20
2017-10-22T08:20:32.494Z,72.30
2017-10-22T08:22:58.855Z,71.90
2017-10-22T08:25:25.182Z,71.10
2017-10-22T08:27:53.627Z,72.20
2017-10-22T08:30:19.980Z,71.30
2017-10-22T08:32:50.007Z,71.30
2017-10-22T08:35:16.350Z,71.20
2017-10-22T08:37:43.420Z,71.30
2017-10-22T08:40:10.734Z,71.30
2017-10-22T08:42:37.042Z,71.00
2017-10-22T08:45:03.451Z,71.00
2017-10-22T08:47:30.492Z,69.80
2017-10-22T08:49:57.537Z,70.20
2017-10-22T08:52:23.867Z,70.20
2017-10-22T08:54:52.285Z,68.60
2017-10-22T08:57:18.401Z,69.30
2017-10-22T08:59:44.558Z,68.30
2017-10-22T09:02:10.936Z,68.30
2017-10-22T09:04:38.001Z,68.70
2017-10-22T09:07:04.343Z,68.60
2017-10-22T09:09:30.627Z,66.90
2017-10-22T09:11:58.721Z,65.50
2017-10-22T09:14:27.840Z,66.20
2017-10-22T09:16:54.158Z,66.20
2017-10-22T09:19:21.532Z,66.90
2017-10-22T09:21:47.815Z,65.50
2017-10-22T09:24:14.900Z,66.70
2017-10-22T09:26:41.211Z,66.70
2017-10-22T09:29:07.525Z,65.90
2017-10-22T09:31:33.845Z,65.60
2017-10-22T09:34:00.132Z,65.20
2017-10-22T09:36:26.516Z,65.50
2017-10-22T09:38:52.822Z,65.60
2017-10-22T09:41:19.078Z,65.00
2017-10-22T09:43:46.134Z,65.40
2017-10-22T09:46:12.406Z,65.40
2017-10-22T09:48:38.678Z,65.40
2017-10-22T09:51:05.727Z,66.00
2017-10-22T09:53:32.011Z,66.00
2017-10-22T09:55:58.432Z,67.20
2017-10-22T09:58:25.723Z,67.00
2017-10-22T10:00:52.734Z,67.20
2017-10-22T10:03:19.046Z,67.10
2017-10-22T10:05:45.419Z,67.70
2017-10-22T10:08:11.708Z,67.40
2017-10-22T10:10:38.000Z,67.90
2017-10-22T10:13:04.346Z,68.70
2017-10-22T10:15:31.442Z,69.50
2017-10-22T10:17:57.742Z,69.70
2017-10-22T10:20:30.018Z,70.90
2017-10-22T10:22:56.336Z,69.60
2017-10-22T10:25:26.371Z,71.60
2017-10-22T10:27:54.903Z,70.80
2017-10-22T10:30:21.313Z,71.20
2017-10-22T10:32:47.710Z,71.50
2017-10-22T10:35:14.123Z,71.30
2017-10-22T10:37:40.519Z,71.60
2017-10-22T10:40:06.835Z,73.30
2017-10-22T10:42:33.139Z,71.50
2017-10-22T10:44:59.433Z,72.70
2017-10-22T10:47:25.737Z,72.20
2017-10-22T10:49:52.065Z,70.90
2017-10-22T10:52:19.471Z,71.80
2017-10-22T10:54:45.906Z,71.70
2017-10-22T10:57:12.327Z,71.30
2017-10-22T10:59:38.743Z,71.70
2017-10-22T11:02:06.085Z,71.40
2017-10-22T11:04:32.430Z,71.20
2017-10-22T11:06:58.720Z,70.60
2017-10-22T11:09:25.009Z,70.60
2017-10-22T11:11:51.322Z,70.20
2017-10-22T11:14:18.670Z,70.60
2017-10-22T11:16:44.964Z,70.50
2017-10-22T11:19:11.266Z,70.50
2017-10-22T11:21:38.351Z,70.50
2017-10-22T11:24:04.697Z,71.80
2017-10-22T11:26:30.971Z,71.40
2017-10-22T11:28:58.043Z,72.30
2017-10-22T11:31:24.324Z,71.60
2017-10-22T11:33:50.620Z,71.30
2017-10-22T11:36:16.918Z,70.60
2017-10-22T11:38:43.194Z,70.60
2017-10-22T11:41:09.499Z,71.80
2017-10-22T11:43:35.803Z,71.30
2017-10-22T11:46:02.099Z,70.90
2017-10-22T11:48:28.445Z,69.90
2017-10-22T11:50:54.849Z,69.90
2017-10-22T11:53:21.126Z,69.60
2017-10-22T11:55:47.386Z,68.80
2017-10-22T11:58:14.402Z,68.10
2017-10-22T12:00:41.782Z,68.10
2017-10-22T12:03:08.051Z,68.80
2017-10-22T12:05:36.154Z,70.90
2017-10-22T12:08:03.144Z,69.10
2017-10-22T12:10:29.425Z,69.10
2017-10-22T12:12:56.412Z,69.30
2017-10-22T12:15:23.201Z,69.30
2017-10-22T12:17:50.723Z,69.80
2017-10-22T12:20:17.826Z,70.20
2017-10-22T12:22:45.155Z,70.10
2017-10-22T12:25:11.434Z,69.80
2017-10-22T12:27:37.746Z,69.40
2017-10-22T12:30:04.132Z,69.30
2017-10-22T12:32:31.130Z,70.30
2017-10-22T12:34:57.442Z,70.20
2017-10-22T12:37:23.696Z,69.50
2017-10-22T12:39:50.751Z,68.50
2017-10-22T12:42:17.077Z,68.50
2017-10-22T12:44:43.366Z,68.80
2017-10-22T12:47:09.651Z,69.40
2017-10-22T12:49:35.916Z,68.40
2017-10-22T12:52:03.279Z,68.90
2017-10-22T12:54:29.550Z,68.50
2017-10-22T12:56:56.043Z,66.30
2017-10-22T12:59:22.327Z,66.30
2017-10-22T13:01:48.623Z,66.30
2017-10-22T13:04:14.872Z,66.50
2017-10-22T13:06:41.187Z,66.00
2017-10-22T13:09:08.254Z,67.40
2017-10-22T13:11:37.939Z,67.40
2017-10-22T13:14:04.262Z,68.60
2017-10-22T13:16:30.530Z,67.70
2017-10-22T13:18:57.590Z,66.80
2017-10-22T13:21:24.651Z,68.40
2017-10-22T13:23:50.955Z,68.30
2017-10-22T13:26:17.971Z,66.90
2017-10-22T13:28:44.242Z,66.80
2017-10-22T13:31:10.691Z,68.20
2017-10-22T13:33:36.956Z,66.90
2017-10-22T13:36:04.238Z,65.90
2017-10-22T13:38:31.331Z,66.50
2017-10-22T13:40:57.648Z,66.60
2017-10-22T13:43:23.931Z,65.50
2017-10-22T13:45:51.073Z,63.20
2017-10-22T13:48:18.114Z,64.50
2017-10-22T13:50:45.398Z,64.50
2017-10-22T13:53:12.428Z,64.80
2017-10-22T13:55:38.739Z,64.80
2017-10-22T13:58:05.002Z,65.10
2017-10-22T14:00:33.165Z,64.90
2017-10-22T14:02:59.467Z,64.80
2017-10-22T14:05:25.734Z,64.50
2017-10-22T14:07:52.018Z,65.30
2017-10-22T14:10:18.277Z,65.80
2017-10-22T14:12:45.286Z,65.20
2017-10-22T14:15:11.513Z,65.20
2017-10-22T14:17:37.805Z,64.90
2017-10-22T14:20:04.074Z,65.10
2017-10-22T14:22:30.342Z,65.60
2017-10-22T14:24:56.605Z,65.20
2017-10-22T14:27:22.852Z,65.50
2017-10-22T14:29:49.261Z,66.10
2017-10-22T14:32:15.554Z,65.00
2017-10-22T14:34:41.818Z,64.20
2017-10-22T14:37:08.074Z,64.90
2017-10-22T14:39:34.430Z,64.40
2017-10-22T14:42:00.700Z,64.00
2017-10-22T14:44:26.984Z,63.40
2017-10-22T14:46:54.099Z,63.20
2017-10-22T14:49:20.397Z,63.60
2017-10-22T14:51:46.744Z,63.10
2017-10-22T14:54:12.986Z,62.60
2017-10-22T14:56:39.262Z,61.90
2017-10-22T14:59:05.534Z,62.60
2017-10-22T15:01:32.923Z,62.40
2017-10-22T15:03:59.165Z,63.00
2017-10-22T15:06:26.159Z,61.60
2017-10-22T15:08:52.488Z,61.60
2017-10-22T15:11:19.005Z,61.30
2017-10-22T15:13:45.302Z,60.90
2017-10-22T15:16:11.565Z,61.60
2017-10-22T15:18:37.849Z,61.60
2017-10-22T15:21:04.922Z,61.50
2017-10-22T15:23:31.218Z,61.60
2017-10-22T15:25:57.543Z,62.10
2017-10-22T15:28:23.786Z,62.20
2017-10-22T15:30:50.134Z,61.90
2017-10-22T15:33:16.435Z,62.10
2017-10-22T15:35:43.498Z,61.50
2017-10-22T15:38:10.539Z,62.10
2017-10-22T15:40:36.893Z,61.40
2017-10-22T15:43:03.243Z,61.30
2017-10-22T15:45:29.574Z,61.60
2017-10-22T15:47:55.840Z,61.30
2017-10-22T15:50:22.275Z,62.40
2017-10-22T15:52:49.291Z,63.00
2017-10-22T15:55:15.554Z,63.20
2017-10-22T15:57:41.834Z,62.70
2017-10-22T16:00:08.154Z,62.90
2017-10-22T16:02:34.488Z,63.10
2017-10-22T16:05:00.799Z,63.10
2017-10-22T16:07:27.094Z,63.70
2017-10-22T16:09:53.362Z,63.40
2017-10-22T16:12:19.644Z,63.80
2017-10-22T16:14:45.923Z,63.70
2017-10-22T16:17:12.190Z,64.10
2017-10-22T16:19:38.428Z,64.30
2017-10-22T16:22:05.447Z,64.80
2017-10-22T16:24:31.719Z,64.70
2017-10-22T16:26:58.002Z,64.90
2017-10-22T16:29:24.288Z,64.80
2017-10-22T16:31:51.318Z,65.30
2017-10-22T16:34:18.102Z,65.30
2017-10-22T16:36:44.163Z,65.30
2017-10-22T16:39:10.257Z,66.30
2017-10-22T16:41:36.322Z,65.90
2017-10-22T16:44:04.187Z,65.60
2017-10-22T16:46:30.979Z,65.50
2017-10-22T16:48:57.042Z,65.50
2017-10-22T16:51:23.903Z,65.60
2017-10-22T16:53:49.955Z,65.40
2017-10-22T16:56:16.002Z,65.30
2017-10-22T16:58:42.051Z,65.70
2017-10-22T17:01:08.862Z,65.50
2017-10-22T17:03:34.917Z,65.30
2017-10-22T17:06:01.779Z,65.30
2017-10-22T17:08:27.967Z,65.30
2017-10-22T17:10:54.058Z,65.30
2017-10-22T17:13:20.131Z,65.30
2017-10-22T17:15:46.951Z,65.00
2017-10-22T17:18:14.547Z,64.80
2017-10-22T17:20:40.727Z,65.40
2017-10-22T17:23:06.820Z,66.10
2017-10-22T17:25:32.942Z,67.20
2017-10-22T17:27:59.020Z,66.30
2017-10-22T17:30:25.211Z,65.20
2017-10-22T17:32:51.286Z,65.50
2017-10-22T17:35:17.353Z,65.30
2017-10-22T17:37:43.401Z,65.30
2017-10-22T17:40:09.495Z,64.90
2017-10-22T17:42:35.562Z,65.30
2017-10-22T17:45:01.658Z,64.60
2017-10-22T17:47:28.089Z,65.10
2017-10-22T17:49:54.304Z,64.50
2017-10-22T17:52:20.387Z,64.20
2017-10-22T17:54:47.275Z,64.90
2017-10-22T17:57:13.340Z,65.00
2017-10-22T17:59:39.431Z,65.20
2017-10-22T18:02:05.580Z,65.30
2017-10-22T18:04:31.614Z,65.70
2017-10-22T18:06:58.466Z,65.10
2017-10-22T18:09:25.224Z,65.00
2017-10-22T18:11:52.306Z,66.00
2017-10-22T18:14:18.576Z,65.30
2017-10-22T18:16:44.960Z,64.50
2017-10-22T18:19:11.369Z,64.30
2017-10-22T18:21:37.687Z,64.40
2017-10-22T18:24:04.303Z,64.30
2017-10-22T18:26:30.717Z,64.30
2017-10-22T18:28:57.194Z,64.20
2017-10-22T18:31:23.521Z,64.10
2017-10-22T18:33:49.811Z,64.50
2017-10-22T18:36:16.928Z,65.20
2017-10-22T18:38:43.213Z,65.10
2017-10-22T18:41:09.505Z,65.50
2017-10-22T18:43:35.766Z,65.60
2017-10-22T18:46:02.050Z,66.50
2017-10-22T18:48:28.310Z,65.40
2017-10-22T18:50:55.362Z,64.70
2017-10-22T18:53:23.650Z,65.00
2017-10-22T18:55:49.981Z,64.00
2017-10-22T18:58:16.267Z,63.70
2017-10-22T19:00:42.547Z,63.80
2017-10-22T19:03:08.841Z,63.10
2017-10-22T19:05:35.892Z,63.80
2017-10-22T19:08:02.266Z,63.80
2017-10-22T19:10:28.534Z,63.30
2017-10-22T19:12:55.832Z,62.30
2017-10-22T19:15:22.167Z,62.20
2017-10-22T19:17:48.447Z,63.10
2017-10-22T19:20:15.518Z,62.00
2017-10-22T19:22:41.798Z,62.10
2017-10-22T19:25:08.099Z,62.80
2017-10-22T19:27:34.438Z,62.50
2017-10-22T19:30:02.820Z,63.30
2017-10-22T19:32:29.072Z,62.60
2017-10-22T19:34:55.394Z,62.30
2017-10-22T19:37:21.764Z,62.30
2017-10-22T19:39:48.743Z,62.40
2017-10-22T19:42:15.006Z,62.40
2017-10-22T19:44:43.186Z,62.00
2017-10-22T19:47:09.533Z,62.00
2017-10-22T19:49:35.788Z,62.30
2017-10-22T19:52:02.820Z,61.20
2017-10-22T19:54:29.096Z,61.20
2017-10-22T19:56:55.350Z,62.00
2017-10-22T19:59:22.381Z,62.30
2017-10-22T20:01:48.670Z,62.30
2017-10-22T20:04:14.937Z,63.00
2017-10-22T20:06:41.198Z,62.00
2017-10-22T20:09:08.171Z,61.70
2017-10-22T20:11:34.472Z,61.70
2017-10-22T20:14:01.010Z,61.90
2017-10-22T20:16:27.326Z,61.90
2017-10-22T20:18:53.602Z,61.40
2017-10-22T20:21:19.870Z,61.60
2017-10-22T20:23:46.859Z,61.70
2017-10-22T20:26:13.106Z,61.70
2017-10-22T20:28:39.426Z,61.20
2017-10-22T20:31:05.678Z,61.40
2017-10-22T20:33:31.959Z,61.40
2017-10-22T20:35:58.214Z,61.10
2017-10-22T20:38:24.599Z,61.10
2017-10-22T20:40:50.870Z,61.80
2017-10-22T20:43:17.233Z,62.10
2017-10-22T20:45:43.509Z,62.00
2017-10-22T20:48:09.784Z,63.10
2017-10-22T20:50:36.030Z,62.20
2017-10-22T20:53:03.109Z,62.50
2017-10-22T20:55:29.367Z,62.40
2017-10-22T20:57:55.630Z,63.00
2017-10-22T21:00:22.713Z,64.10
2017-10-22T21:02:48.962Z,63.50
2017-10-22T21:05:15.254Z,63.40
2017-10-22T21:07:41.570Z,64.00
2017-10-22T21:10:07.846Z,63.60
2017-10-22T21:12:34.095Z,64.10
2017-10-22T21:15:00.397Z,64.20
2017-10-22T21:17:26.643Z,63.60
2017-10-22T21:19:52.902Z,63.80
2017-10-22T21:22:19.153Z,63.80
2017-10-22T21:24:45.427Z,63.90
2017-10-22T21:27:11.691Z,63.40
2017-10-22T21:29:38.001Z,63.60
2017-10-22T21:32:05.015Z,63.40
2017-10-22T21:34:31.328Z,63.20
2017-10-22T21:36:57.625Z,63.00
2017-10-22T21:39:23.921Z,63.30
2017-10-22T21:41:50.309Z,62.90
2017-10-22T21:44:16.682Z,62.90
2017-10-22T21:46:42.972Z,62.80
2017-10-22T21:49:09.255Z,62.80
2017-10-22T21:51:35.586Z,62.90
2017-10-22T21:54:01.890Z,62.30
2017-10-22T21:56:28.276Z,62.20
2017-10-22T21:58:54.537Z,61.90
2017-10-22T22:01:20.842Z,62.60
2017-10-22T22:03:47.132Z,62.70
2017-10-22T22:06:13.444Z,61.70
2017-10-22T22:08:39.816Z,62.40
2017-10-22T22:11:06.103Z,62.20
2017-10-22T22:13:33.420Z,62.00
2017-10-22T22:15:59.802Z,61.60
2017-10-22T22:18:27.916Z,61.60
2017-10-22T22:20:54.258Z,61.50
2017-10-22T22:23:20.542Z,61.90
2017-10-22T22:25:46.901Z,62.30
2017-10-22T22:28:13.185Z,61.90
2017-10-22T22:30:39.631Z,61.90
2017-10-22T22:33:06.691Z,62.30
2017-10-22T22:35:32.988Z,62.30
2017-10-22T22:37:59.235Z,62.30
2017-10-22T22:40:25.579Z,63.20
2017-10-22T22:42:51.860Z,62.20
2017-10-22T22:45:18.167Z,61.90
2017-10-22T22:47:44.445Z,61.90
2017-10-22T22:50:11.513Z,61.90
2017-10-22T22:52:37.767Z,61.80
2017-10-22T22:55:04.607Z,61.70
2017-10-22T22:57:31.002Z,62.10
2017-10-22T22:59:58.075Z,62.20
2017-10-22T23:02:24.333Z,62.00
2017-10-22T23:04:50.632Z,62.40
2017-10-22T23:07:17.062Z,63.00
2017-10-22T23:09:43.335Z,62.90
2017-10-22T23:12:09.612Z,63.50
2017-10-22T23:14:35.871Z,64.50
2017-10-22T23:17:02.259Z,64.40
2017-10-22T23:19:29.227Z,64.70
2017-10-22T23:21:55.529Z,64.60
2017-10-22T23:24:21.889Z,64.60
2017-10-22T23:26:48.191Z,64.70
2017-10-22T23:29:15.484Z,66.10
2017-10-22T23:31:41.759Z,65.80
2017-10-22T23:34:08.020Z,66.00
2017-10-22T23:36:34.343Z,64.80
2017-10-22T23:39:00.810Z,64.60
2017-10-22T23:41:27.133Z,64.70
2017-10-22T23:43:53.403Z,64.60
2017-10-22T23:46:19.709Z,64.60
2017-10-22T23:48:45.959Z,64.60
2017-10-22T23:51:12.239Z,64.60
2017-10-22T23:53:38.511Z,64.70
2017-10-22T23:56:05.529Z,64.80
2017-10-22T23:58:31.887Z,64.70
